EmailTwitter


Observations de surface / France / LFBD (07510)

Régions: Québec | Canada | États-Unis | Europe | France | UK | Ailleurs
Station
Affichage
Infos & localisation pour LFBD (07510) | Aide pour décoder les METARs

Observations prises le 2019-04-26 à 11H30 UTC à BORDEAUX/MERIGNA, FR (LFBD)

Etat du ciel: partiellement nuageux.

Température: 15.0 Celsius

Point de rosée: 10.0 Celsius

Humidité relative: 72%

Facteur vent: 13.

Vents: Ouest à 35 km/h ou 19 noeuds.

Pression au niveau moyen de la mer: 101.90 kilopascals.

Visibilité horizontale: 6.21 milles terrestres ou 9.94 kilomètres.

Hauteur du plafond: 701 mètres ( 2300 pieds ).

Observation METAR:

LFBD 261130Z AUTO 28019KT 9999 BKN023/// BKN028/// BKN034/// ///CB 15/10 Q1019

TEMPO 27020G30KT 3000 SHRA=